sensor_id;sensor_type;location;lat;lon;timestamp;P1;durP1;ratioP1;P2;durP2;ratioP2
38332;SDS011;25748;46.670;14.272;2022-09-27T00:00:27;7.22;;;2.20;;
38332;SDS011;25748;46.670;14.272;2022-09-27T00:02:53;3.92;;;2.47;;
38332;SDS011;25748;46.670;14.272;2022-09-27T00:05:19;9.25;;;2.70;;
38332;SDS011;25748;46.670;14.272;2022-09-27T00:07:44;4.55;;;2.20;;
38332;SDS011;25748;46.670;14.272;2022-09-27T00:10:11;3.83;;;2.50;;
38332;SDS011;25748;46.670;14.272;2022-09-27T00:12:37;5.13;;;2.67;;
38332;SDS011;25748;46.670;14.272;2022-09-27T00:15:04;5.40;;;2.85;;
38332;SDS011;25748;46.670;14.272;2022-09-27T00:17:31;4.80;;;2.42;;
38332;SDS011;25748;46.670;14.272;2022-09-27T00:19:57;4.90;;;2.58;;
38332;SDS011;25748;46.670;14.272;2022-09-27T00:22:24;4.70;;;1.70;;
38332;SDS011;25748;46.670;14.272;2022-09-27T00:24:50;3.25;;;1.60;;
38332;SDS011;25748;46.670;14.272;2022-09-27T00:27:17;3.22;;;2.00;;
38332;SDS011;25748;46.670;14.272;2022-09-27T00:29:43;4.65;;;2.10;;
38332;SDS011;25748;46.670;14.272;2022-09-27T00:32:10;7.82;;;2.10;;
38332;SDS011;25748;46.670;14.272;2022-09-27T00:34:37;7.05;;;2.17;;
38332;SDS011;25748;46.670;14.272;2022-09-27T00:37:03;8.75;;;3.20;;
38332;SDS011;25748;46.670;14.272;2022-09-27T00:39:29;4.03;;;2.03;;
38332;SDS011;25748;46.670;14.272;2022-09-27T00:41:54;3.45;;;2.00;;
38332;SDS011;25748;46.670;14.272;2022-09-27T00:47:35;4.53;;;2.45;;
38332;SDS011;25748;46.670;14.272;2022-09-27T00:52:28;5.13;;;2.78;;
38332;SDS011;25748;46.670;14.272;2022-09-27T00:55:17;10.00;;;3.08;;
38332;SDS011;25748;46.670;14.272;2022-09-27T00:57:46;5.35;;;2.83;;
38332;SDS011;25748;46.670;14.272;2022-09-27T01:00:13;7.70;;;4.00;;
38332;SDS011;25748;46.670;14.272;2022-09-27T01:02:41;5.00;;;2.42;;
38332;SDS011;25748;46.670;14.272;2022-09-27T01:05:11;4.53;;;2.30;;
38332;SDS011;25748;46.670;14.272;2022-09-27T01:07:38;6.18;;;2.92;;
38332;SDS011;25748;46.670;14.272;2022-09-27T01:10:04;4.07;;;2.60;;
38332;SDS011;25748;46.670;14.272;2022-09-27T01:15:54;6.22;;;2.53;;
38332;SDS011;25748;46.670;14.272;2022-09-27T01:18:34;5.25;;;2.67;;
38332;SDS011;25748;46.670;14.272;2022-09-27T01:35:19;5.82;;;2.92;;
38332;SDS011;25748;46.670;14.272;2022-09-27T01:38:10;6.00;;;3.03;;
38332;SDS011;25748;46.670;14.272;2022-09-27T01:40:42;5.30;;;2.92;;
38332;SDS011;25748;46.670;14.272;2022-09-27T01:43:14;7.15;;;2.90;;
38332;SDS011;25748;46.670;14.272;2022-09-27T01:51:14;13.52;;;3.08;;
38332;SDS011;25748;46.670;14.272;2022-09-27T01:54:10;5.45;;;2.85;;
38332;SDS011;25748;46.670;14.272;2022-09-27T01:56:49;9.55;;;2.90;;
38332;SDS011;25748;46.670;14.272;2022-09-27T01:59:19;5.70;;;3.13;;
38332;SDS011;25748;46.670;14.272;2022-09-27T02:01:47;8.38;;;3.60;;
38332;SDS011;25748;46.670;14.272;2022-09-27T02:04:20;8.82;;;3.97;;
38332;SDS011;25748;46.670;14.272;2022-09-27T02:06:49;8.23;;;3.17;;
38332;SDS011;25748;46.670;14.272;2022-09-27T02:11:59;6.47;;;2.63;;
38332;SDS011;25748;46.670;14.272;2022-09-27T02:14:37;6.35;;;3.00;;
38332;SDS011;25748;46.670;14.272;2022-09-27T02:17:20;7.00;;;3.13;;
38332;SDS011;25748;46.670;14.272;2022-09-27T02:19:56;5.93;;;3.33;;
38332;SDS011;25748;46.670;14.272;2022-09-27T02:22:40;4.47;;;3.00;;
38332;SDS011;25748;46.670;14.272;2022-09-27T02:25:35;6.63;;;3.60;;
38332;SDS011;25748;46.670;14.272;2022-09-27T02:30:41;7.45;;;3.30;;
38332;SDS011;25748;46.670;14.272;2022-09-27T02:33:07;4.85;;;2.97;;
38332;SDS011;25748;46.670;14.272;2022-09-27T02:35:34;9.45;;;3.40;;
38332;SDS011;25748;46.670;14.272;2022-09-27T02:38:00;8.15;;;3.17;;
38332;SDS011;25748;46.670;14.272;2022-09-27T02:40:32;6.45;;;3.17;;
38332;SDS011;25748;46.670;14.272;2022-09-27T02:42:59;7.18;;;3.38;;
38332;SDS011;25748;46.670;14.272;2022-09-27T02:45:35;8.43;;;3.60;;
38332;SDS011;25748;46.670;14.272;2022-09-27T02:51:41;8.20;;;3.47;;
38332;SDS011;25748;46.670;14.272;2022-09-27T02:56:31;8.15;;;2.92;;
38332;SDS011;25748;46.670;14.272;2022-09-27T03:01:47;10.23;;;3.63;;
38332;SDS011;25748;46.670;14.272;2022-09-27T03:07:22;7.22;;;3.63;;
38332;SDS011;25748;46.670;14.272;2022-09-27T03:09:49;9.32;;;3.15;;
38332;SDS011;25748;46.670;14.272;2022-09-27T03:12:17;10.35;;;3.67;;
38332;SDS011;25748;46.670;14.272;2022-09-27T03:14:47;6.97;;;3.30;;
38332;SDS011;25748;46.670;14.272;2022-09-27T03:17:13;6.13;;;3.42;;
38332;SDS011;25748;46.670;14.272;2022-09-27T03:19:39;9.73;;;3.42;;
38332;SDS011;25748;46.670;14.272;2022-09-27T03:22:05;6.80;;;2.75;;
38332;SDS011;25748;46.670;14.272;2022-09-27T03:24:31;5.78;;;2.83;;
38332;SDS011;25748;46.670;14.272;2022-09-27T03:26:56;9.20;;;2.70;;
38332;SDS011;25748;46.670;14.272;2022-09-27T03:29:22;8.05;;;2.53;;
38332;SDS011;25748;46.670;14.272;2022-09-27T03:31:48;7.43;;;2.95;;
38332;SDS011;25748;46.670;14.272;2022-09-27T03:34:14;6.38;;;2.97;;
38332;SDS011;25748;46.670;14.272;2022-09-27T03:36:39;9.77;;;3.45;;
38332;SDS011;25748;46.670;14.272;2022-09-27T03:39:05;6.18;;;2.85;;
38332;SDS011;25748;46.670;14.272;2022-09-27T03:41:31;7.88;;;3.35;;
38332;SDS011;25748;46.670;14.272;2022-09-27T03:43:57;9.00;;;3.47;;
38332;SDS011;25748;46.670;14.272;2022-09-27T03:46:24;5.38;;;2.47;;
38332;SDS011;25748;46.670;14.272;2022-09-27T03:48:50;7.60;;;3.47;;
38332;SDS011;25748;46.670;14.272;2022-09-27T03:51:15;8.55;;;3.13;;
38332;SDS011;25748;46.670;14.272;2022-09-27T03:53:41;5.50;;;2.83;;
38332;SDS011;25748;46.670;14.272;2022-09-27T03:56:07;7.82;;;3.38;;
38332;SDS011;25748;46.670;14.272;2022-09-27T03:58:33;6.25;;;3.47;;
38332;SDS011;25748;46.670;14.272;2022-09-27T04:00:59;6.05;;;3.15;;
38332;SDS011;25748;46.670;14.272;2022-09-27T04:03:28;7.65;;;3.00;;
38332;SDS011;25748;46.670;14.272;2022-09-27T04:05:53;6.70;;;3.13;;
38332;SDS011;25748;46.670;14.272;2022-09-27T04:08:19;4.93;;;3.22;;
38332;SDS011;25748;46.670;14.272;2022-09-27T04:10:48;5.35;;;2.83;;
38332;SDS011;25748;46.670;14.272;2022-09-27T04:13:13;6.15;;;3.25;;
38332;SDS011;25748;46.670;14.272;2022-09-27T04:15:39;4.90;;;2.90;;
38332;SDS011;25748;46.670;14.272;2022-09-27T04:18:07;6.90;;;2.95;;
38332;SDS011;25748;46.670;14.272;2022-09-27T04:20:33;7.53;;;3.55;;
38332;SDS011;25748;46.670;14.272;2022-09-27T04:23:00;8.15;;;3.60;;
38332;SDS011;25748;46.670;14.272;2022-09-27T04:25:26;7.85;;;3.30;;
38332;SDS011;25748;46.670;14.272;2022-09-27T04:27:51;6.05;;;3.15;;
38332;SDS011;25748;46.670;14.272;2022-09-27T04:30:19;6.35;;;3.95;;
38332;SDS011;25748;46.670;14.272;2022-09-27T04:32:46;8.20;;;3.60;;
38332;SDS011;25748;46.670;14.272;2022-09-27T04:35:12;11.05;;;3.15;;
38332;SDS011;25748;46.670;14.272;2022-09-27T04:37:57;12.02;;;4.53;;
38332;SDS011;25748;46.670;14.272;2022-09-27T04:40:24;9.55;;;4.00;;
38332;SDS011;25748;46.670;14.272;2022-09-27T04:42:50;5.13;;;2.67;;
38332;SDS011;25748;46.670;14.272;2022-09-27T04:45:16;7.22;;;3.60;;
38332;SDS011;25748;46.670;14.272;2022-09-27T04:47:43;6.45;;;3.03;;
38332;SDS011;25748;46.670;14.272;2022-09-27T04:50:11;8.07;;;3.60;;
38332;SDS011;25748;46.670;14.272;2022-09-27T04:52:37;5.28;;;3.05;;
38332;SDS011;25748;46.670;14.272;2022-09-27T04:55:04;5.95;;;2.95;;
38332;SDS011;25748;46.670;14.272;2022-09-27T04:57:32;10.00;;;3.10;;
38332;SDS011;25748;46.670;14.272;2022-09-27T04:59:58;5.00;;;3.03;;
38332;SDS011;25748;46.670;14.272;2022-09-27T05:02:27;6.97;;;2.78;;
38332;SDS011;25748;46.670;14.272;2022-09-27T05:04:54;7.88;;;3.28;;
38332;SDS011;25748;46.670;14.272;2022-09-27T05:07:27;5.32;;;2.42;;
38332;SDS011;25748;46.670;14.272;2022-09-27T05:09:53;4.20;;;2.20;;
38332;SDS011;25748;46.670;14.272;2022-09-27T05:12:19;4.82;;;2.17;;
38332;SDS011;25748;46.670;14.272;2022-09-27T05:14:45;6.45;;;2.45;;
38332;SDS011;25748;46.670;14.272;2022-09-27T05:17:11;5.03;;;2.05;;
38332;SDS011;25748;46.670;14.272;2022-09-27T05:19:38;4.25;;;2.10;;
38332;SDS011;25748;46.670;14.272;2022-09-27T05:22:04;6.15;;;3.33;;
38332;SDS011;25748;46.670;14.272;2022-09-27T05:24:31;6.50;;;2.67;;
38332;SDS011;25748;46.670;14.272;2022-09-27T05:26:58;8.55;;;3.15;;
38332;SDS011;25748;46.670;14.272;2022-09-27T05:29:24;6.80;;;3.40;;
38332;SDS011;25748;46.670;14.272;2022-09-27T05:31:50;7.00;;;2.97;;
38332;SDS011;25748;46.670;14.272;2022-09-27T05:34:16;8.23;;;3.00;;
38332;SDS011;25748;46.670;14.272;2022-09-27T05:36:45;6.78;;;3.08;;
38332;SDS011;25748;46.670;14.272;2022-09-27T05:39:12;6.18;;;2.95;;
38332;SDS011;25748;46.670;14.272;2022-09-27T05:41:38;5.72;;;3.00;;
38332;SDS011;25748;46.670;14.272;2022-09-27T05:44:04;4.97;;;2.33;;
38332;SDS011;25748;46.670;14.272;2022-09-27T05:46:30;5.43;;;2.97;;
38332;SDS011;25748;46.670;14.272;2022-09-27T05:48:55;6.93;;;2.97;;
38332;SDS011;25748;46.670;14.272;2022-09-27T05:51:21;5.18;;;2.40;;
38332;SDS011;25748;46.670;14.272;2022-09-27T05:53:47;5.45;;;2.80;;
38332;SDS011;25748;46.670;14.272;2022-09-27T05:56:12;5.53;;;2.63;;
38332;SDS011;25748;46.670;14.272;2022-09-27T05:58:38;4.88;;;2.33;;
38332;SDS011;25748;46.670;14.272;2022-09-27T06:01:07;5.43;;;2.97;;
38332;SDS011;25748;46.670;14.272;2022-09-27T06:03:34;7.38;;;3.35;;
38332;SDS011;25748;46.670;14.272;2022-09-27T06:06:00;7.00;;;3.08;;
38332;SDS011;25748;46.670;14.272;2022-09-27T06:08:34;5.63;;;2.88;;
38332;SDS011;25748;46.670;14.272;2022-09-27T06:11:02;7.28;;;2.70;;
38332;SDS011;25748;46.670;14.272;2022-09-27T06:13:29;5.07;;;2.60;;
38332;SDS011;25748;46.670;14.272;2022-09-27T06:15:57;8.82;;;2.63;;
38332;SDS011;25748;46.670;14.272;2022-09-27T06:18:24;11.15;;;3.08;;
38332;SDS011;25748;46.670;14.272;2022-09-27T06:20:50;6.70;;;2.88;;
38332;SDS011;25748;46.670;14.272;2022-09-27T06:23:17;6.10;;;2.45;;
38332;SDS011;25748;46.670;14.272;2022-09-27T06:25:44;4.38;;;2.78;;
38332;SDS011;25748;46.670;14.272;2022-09-27T06:28:11;4.75;;;2.20;;
38332;SDS011;25748;46.670;14.272;2022-09-27T06:30:42;17.73;;;3.10;;
38332;SDS011;25748;46.670;14.272;2022-09-27T06:33:09;5.03;;;2.80;;
38332;SDS011;25748;46.670;14.272;2022-09-27T06:35:37;8.65;;;3.30;;
38332;SDS011;25748;46.670;14.272;2022-09-27T06:38:04;7.07;;;2.85;;
38332;SDS011;25748;46.670;14.272;2022-09-27T06:40:32;5.30;;;3.03;;
38332;SDS011;25748;46.670;14.272;2022-09-27T06:43:02;6.80;;;2.78;;
38332;SDS011;25748;46.670;14.272;2022-09-27T06:45:33;6.57;;;3.08;;
38332;SDS011;25748;46.670;14.272;2022-09-27T06:48:00;5.38;;;2.53;;
38332;SDS011;25748;46.670;14.272;2022-09-27T06:50:34;5.22;;;2.78;;
38332;SDS011;25748;46.670;14.272;2022-09-27T06:53:02;7.07;;;2.97;;
38332;SDS011;25748;46.670;14.272;2022-09-27T06:55:28;5.60;;;2.47;;
38332;SDS011;25748;46.670;14.272;2022-09-27T06:57:58;5.75;;;2.78;;
38332;SDS011;25748;46.670;14.272;2022-09-27T07:00:43;6.03;;;2.88;;
38332;SDS011;25748;46.670;14.272;2022-09-27T07:03:12;6.63;;;3.33;;
38332;SDS011;25748;46.670;14.272;2022-09-27T07:05:38;5.30;;;2.55;;
38332;SDS011;25748;46.670;14.272;2022-09-27T07:08:11;4.80;;;2.33;;
38332;SDS011;25748;46.670;14.272;2022-09-27T07:10:38;4.97;;;2.63;;
38332;SDS011;25748;46.670;14.272;2022-09-27T07:13:05;5.25;;;2.55;;
38332;SDS011;25748;46.670;14.272;2022-09-27T07:15:32;5.55;;;2.42;;
38332;SDS011;25748;46.670;14.272;2022-09-27T07:18:02;4.97;;;2.47;;
38332;SDS011;25748;46.670;14.272;2022-09-27T07:20:30;6.80;;;2.58;;
38332;SDS011;25748;46.670;14.272;2022-09-27T07:22:56;6.18;;;3.40;;
38332;SDS011;25748;46.670;14.272;2022-09-27T07:25:23;5.32;;;2.30;;
38332;SDS011;25748;46.670;14.272;2022-09-27T07:27:50;4.18;;;2.40;;
38332;SDS011;25748;46.670;14.272;2022-09-27T07:30:19;6.63;;;2.92;;
38332;SDS011;25748;46.670;14.272;2022-09-27T07:32:45;4.78;;;2.13;;
38332;SDS011;25748;46.670;14.272;2022-09-27T07:35:11;5.53;;;2.65;;
38332;SDS011;25748;46.670;14.272;2022-09-27T07:37:41;8.30;;;1.95;;
38332;SDS011;25748;46.670;14.272;2022-09-27T07:40:07;4.97;;;2.60;;
38332;SDS011;25748;46.670;14.272;2022-09-27T07:42:34;5.32;;;2.75;;
38332;SDS011;25748;46.670;14.272;2022-09-27T07:45:05;5.30;;;2.75;;
38332;SDS011;25748;46.670;14.272;2022-09-27T07:47:32;6.68;;;2.85;;
38332;SDS011;25748;46.670;14.272;2022-09-27T07:49:57;6.93;;;2.97;;
38332;SDS011;25748;46.670;14.272;2022-09-27T07:52:23;6.25;;;2.97;;
38332;SDS011;25748;46.670;14.272;2022-09-27T07:54:49;5.03;;;2.80;;
38332;SDS011;25748;46.670;14.272;2022-09-27T07:57:15;7.57;;;2.55;;
38332;SDS011;25748;46.670;14.272;2022-09-27T07:59:41;6.05;;;2.80;;
38332;SDS011;25748;46.670;14.272;2022-09-27T08:02:13;5.57;;;2.80;;
38332;SDS011;25748;46.670;14.272;2022-09-27T08:04:41;8.02;;;3.45;;
38332;SDS011;25748;46.670;14.272;2022-09-27T08:07:12;4.35;;;2.38;;
38332;SDS011;25748;46.670;14.272;2022-09-27T08:09:38;5.05;;;2.70;;
38332;SDS011;25748;46.670;14.272;2022-09-27T08:12:04;4.82;;;2.50;;
38332;SDS011;25748;46.670;14.272;2022-09-27T08:14:30;5.55;;;2.13;;
38332;SDS011;25748;46.670;14.272;2022-09-27T08:16:56;7.20;;;2.80;;
38332;SDS011;25748;46.670;14.272;2022-09-27T08:19:22;5.57;;;2.58;;
38332;SDS011;25748;46.670;14.272;2022-09-27T08:21:50;3.90;;;2.30;;
38332;SDS011;25748;46.670;14.272;2022-09-27T08:24:17;4.20;;;2.33;;
38332;SDS011;25748;46.670;14.272;2022-09-27T08:26:42;3.75;;;2.50;;
38332;SDS011;25748;46.670;14.272;2022-09-27T08:29:08;4.05;;;2.13;;
38332;SDS011;25748;46.670;14.272;2022-09-27T08:31:34;4.55;;;1.90;;
38332;SDS011;25748;46.670;14.272;2022-09-27T08:34:00;8.43;;;2.38;;
38332;SDS011;25748;46.670;14.272;2022-09-27T08:36:25;7.30;;;2.75;;
38332;SDS011;25748;46.670;14.272;2022-09-27T08:38:52;5.18;;;2.55;;
38332;SDS011;25748;46.670;14.272;2022-09-27T08:49:51;4.30;;;2.30;;
38332;SDS011;25748;46.670;14.272;2022-09-27T08:52:40;4.53;;;2.22;;
38332;SDS011;25748;46.670;14.272;2022-09-27T08:57:56;4.30;;;2.50;;
38332;SDS011;25748;46.670;14.272;2022-09-27T09:00:23;4.47;;;1.83;;
38332;SDS011;25748;46.670;14.272;2022-09-27T09:02:49;3.58;;;1.80;;
38332;SDS011;25748;46.670;14.272;2022-09-27T09:05:36;6.15;;;1.65;;
38332;SDS011;25748;46.670;14.272;2022-09-27T09:10:54;4.05;;;1.42;;
38332;SDS011;25748;46.670;14.272;2022-09-27T09:19:39;4.35;;;1.70;;
38332;SDS011;25748;46.670;14.272;2022-09-27T09:22:37;3.05;;;1.40;;
38332;SDS011;25748;46.670;14.272;2022-09-27T09:25:24;2.97;;;1.58;;
38332;SDS011;25748;46.670;14.272;2022-09-27T09:31:06;3.80;;;1.40;;
38332;SDS011;25748;46.670;14.272;2022-09-27T09:34:07;2.67;;;1.30;;
38332;SDS011;25748;46.670;14.272;2022-09-27T09:39:29;4.70;;;2.00;;
38332;SDS011;25748;46.670;14.272;2022-09-27T09:42:05;2.47;;;1.33;;
38332;SDS011;25748;46.670;14.272;2022-09-27T09:47:32;6.75;;;2.58;;
38332;SDS011;25748;46.670;14.272;2022-09-27T09:50:05;5.40;;;2.60;;
38332;SDS011;25748;46.670;14.272;2022-09-27T09:52:42;5.00;;;2.65;;
38332;SDS011;25748;46.670;14.272;2022-09-27T09:55:23;4.68;;;2.67;;
38332;SDS011;25748;46.670;14.272;2022-09-27T10:00:40;5.50;;;2.83;;
38332;SDS011;25748;46.670;14.272;2022-09-27T10:03:07;7.05;;;2.92;;
38332;SDS011;25748;46.670;14.272;2022-09-27T10:05:33;4.75;;;1.95;;
38332;SDS011;25748;46.670;14.272;2022-09-27T10:08:03;4.68;;;2.65;;
38332;SDS011;25748;46.670;14.272;2022-09-27T10:10:31;3.83;;;2.55;;
38332;SDS011;25748;46.670;14.272;2022-09-27T10:12:58;4.00;;;2.30;;
38332;SDS011;25748;46.670;14.272;2022-09-27T10:15:27;5.13;;;2.60;;
38332;SDS011;25748;46.670;14.272;2022-09-27T10:17:55;4.82;;;2.33;;
38332;SDS011;25748;46.670;14.272;2022-09-27T10:20:30;4.30;;;2.17;;
38332;SDS011;25748;46.670;14.272;2022-09-27T10:23:15;4.43;;;1.90;;
38332;SDS011;25748;46.670;14.272;2022-09-27T10:26:02;4.13;;;1.38;;
38332;SDS011;25748;46.670;14.272;2022-09-27T10:28:41;3.63;;;1.75;;
38332;SDS011;25748;46.670;14.272;2022-09-27T10:31:11;3.35;;;1.83;;
38332;SDS011;25748;46.670;14.272;2022-09-27T10:36:26;4.20;;;1.95;;
38332;SDS011;25748;46.670;14.272;2022-09-27T10:38:55;3.75;;;2.10;;
38332;SDS011;25748;46.670;14.272;2022-09-27T10:44:17;2.92;;;1.63;;
38332;SDS011;25748;46.670;14.272;2022-09-27T10:46:48;7.10;;;1.58;;
38332;SDS011;25748;46.670;14.272;2022-09-27T10:49:27;4.40;;;1.40;;
38332;SDS011;25748;46.670;14.272;2022-09-27T10:51:57;2.35;;;1.35;;
38332;SDS011;25748;46.670;14.272;2022-09-27T10:54:26;3.78;;;1.40;;
38332;SDS011;25748;46.670;14.272;2022-09-27T10:56:57;2.25;;;1.23;;
38332;SDS011;25748;46.670;14.272;2022-09-27T10:59:28;3.10;;;1.42;;
38332;SDS011;25748;46.670;14.272;2022-09-27T11:01:59;6.72;;;1.58;;
38332;SDS011;25748;46.670;14.272;2022-09-27T11:04:28;3.40;;;1.80;;
38332;SDS011;25748;46.670;14.272;2022-09-27T11:07:18;3.63;;;1.85;;
38332;SDS011;25748;46.670;14.272;2022-09-27T11:09:51;2.25;;;1.42;;
38332;SDS011;25748;46.670;14.272;2022-09-27T11:12:19;1.70;;;1.00;;
38332;SDS011;25748;46.670;14.272;2022-09-27T11:15:12;3.45;;;1.02;;
38332;SDS011;25748;46.670;14.272;2022-09-27T11:17:54;1.90;;;0.80;;
38332;SDS011;25748;46.670;14.272;2022-09-27T11:20:35;2.03;;;0.85;;
38332;SDS011;25748;46.670;14.272;2022-09-27T11:31:14;1.50;;;0.77;;
38332;SDS011;25748;46.670;14.272;2022-09-27T11:33:55;0.70;;;0.50;;
38332;SDS011;25748;46.670;14.272;2022-09-27T11:39:28;1.00;;;0.50;;
38332;SDS011;25748;46.670;14.272;2022-09-27T11:53:10;0.90;;;0.30;;
38332;SDS011;25748;46.670;14.272;2022-09-27T12:01:21;0.50;;;0.20;;
38332;SDS011;25748;46.670;14.272;2022-09-27T12:03:55;1.52;;;0.22;;
38332;SDS011;25748;46.670;14.272;2022-09-27T12:09:11;0.13;;;0.10;;
38332;SDS011;25748;46.670;14.272;2022-09-27T12:16:57;1.13;;;0.40;;
38332;SDS011;25748;46.670;14.272;2022-09-27T12:19:27;0.57;;;0.20;;
38332;SDS011;25748;46.670;14.272;2022-09-27T12:22:01;0.20;;;0.03;;
38332;SDS011;25748;46.670;14.272;2022-09-27T12:24:29;0.20;;;0.10;;
38332;SDS011;25748;46.670;14.272;2022-09-27T12:26:58;1.25;;;0.10;;
38332;SDS011;25748;46.670;14.272;2022-09-27T12:29:40;0.20;;;0.10;;
38332;SDS011;25748;46.670;14.272;2022-09-27T12:32:10;0.20;;;0.10;;
38332;SDS011;25748;46.670;14.272;2022-09-27T12:34:45;0.35;;;0.00;;
38332;SDS011;25748;46.670;14.272;2022-09-27T12:37:34;0.20;;;0.10;;
38332;SDS011;25748;46.670;14.272;2022-09-27T12:40:18;0.00;;;0.00;;
38332;SDS011;25748;46.670;14.272;2022-09-27T12:43:05;0.13;;;0.00;;
38332;SDS011;25748;46.670;14.272;2022-09-27T12:50:36;0.60;;;0.30;;
38332;SDS011;25748;46.670;14.272;2022-09-27T12:55:49;0.25;;;0.10;;
38332;SDS011;25748;46.670;14.272;2022-09-27T12:58:41;0.22;;;0.10;;
38332;SDS011;25748;46.670;14.272;2022-09-27T13:14:38;0.40;;;0.10;;
38332;SDS011;25748;46.670;14.272;2022-09-27T13:22:54;0.10;;;0.00;;
38332;SDS011;25748;46.670;14.272;2022-09-27T13:46:57;0.30;;;0.10;;
38332;SDS011;25748;46.670;14.272;2022-09-27T13:49:35;0.38;;;0.10;;
38332;SDS011;25748;46.670;14.272;2022-09-27T13:52:04;1.50;;;0.10;;
38332;SDS011;25748;46.670;14.272;2022-09-27T13:55:00;0.60;;;0.22;;
38332;SDS011;25748;46.670;14.272;2022-09-27T14:00:31;0.33;;;0.10;;
38332;SDS011;25748;46.670;14.272;2022-09-27T14:06:12;0.47;;;0.13;;
38332;SDS011;25748;46.670;14.272;2022-09-27T14:09:03;1.23;;;0.10;;
38332;SDS011;25748;46.670;14.272;2022-09-27T14:11:36;0.10;;;0.10;;
38332;SDS011;25748;46.670;14.272;2022-09-27T14:14:04;0.25;;;0.00;;
38332;SDS011;25748;46.670;14.272;2022-09-27T14:16:33;0.13;;;0.10;;
38332;SDS011;25748;46.670;14.272;2022-09-27T14:19:05;1.77;;;0.10;;
38332;SDS011;25748;46.670;14.272;2022-09-27T14:27:06;1.02;;;0.10;;
38332;SDS011;25748;46.670;14.272;2022-09-27T14:29:38;3.30;;;0.20;;
38332;SDS011;25748;46.670;14.272;2022-09-27T14:32:10;0.55;;;0.15;;
38332;SDS011;25748;46.670;14.272;2022-09-27T14:34:38;2.33;;;0.10;;
38332;SDS011;25748;46.670;14.272;2022-09-27T14:37:04;0.20;;;0.10;;
38332;SDS011;25748;46.670;14.272;2022-09-27T14:39:52;0.35;;;0.10;;
38332;SDS011;25748;46.670;14.272;2022-09-27T14:42:30;0.40;;;0.10;;
38332;SDS011;25748;46.670;14.272;2022-09-27T14:45:03;0.38;;;0.10;;
38332;SDS011;25748;46.670;14.272;2022-09-27T14:47:47;3.20;;;1.52;;
38332;SDS011;25748;46.670;14.272;2022-09-27T14:50:19;5.75;;;3.63;;
38332;SDS011;25748;46.670;14.272;2022-09-27T14:52:48;3.85;;;3.30;;
38332;SDS011;25748;46.670;14.272;2022-09-27T14:55:20;10.97;;;5.30;;
38332;SDS011;25748;46.670;14.272;2022-09-27T14:57:57;2.33;;;1.55;;
38332;SDS011;25748;46.670;14.272;2022-09-27T15:02:59;1.02;;;0.52;;
38332;SDS011;25748;46.670;14.272;2022-09-27T15:05:29;1.08;;;0.60;;
38332;SDS011;25748;46.670;14.272;2022-09-27T15:07:57;2.03;;;0.30;;
38332;SDS011;25748;46.670;14.272;2022-09-27T15:10:26;1.33;;;0.50;;
38332;SDS011;25748;46.670;14.272;2022-09-27T15:12:57;1.35;;;0.50;;
38332;SDS011;25748;46.670;14.272;2022-09-27T15:15:34;1.33;;;0.40;;
38332;SDS011;25748;46.670;14.272;2022-09-27T15:18:29;6.03;;;2.42;;
38332;SDS011;25748;46.670;14.272;2022-09-27T15:20:57;1.77;;;0.88;;
38332;SDS011;25748;46.670;14.272;2022-09-27T15:23:30;1.55;;;0.60;;
38332;SDS011;25748;46.670;14.272;2022-09-27T15:28:41;3.30;;;1.60;;
38332;SDS011;25748;46.670;14.272;2022-09-27T15:31:09;1.20;;;0.57;;
38332;SDS011;25748;46.670;14.272;2022-09-27T15:33:35;1.45;;;0.20;;
38332;SDS011;25748;46.670;14.272;2022-09-27T15:36:05;0.70;;;0.35;;
38332;SDS011;25748;46.670;14.272;2022-09-27T15:41:17;0.50;;;0.30;;
38332;SDS011;25748;46.670;14.272;2022-09-27T15:49:20;3.97;;;1.00;;
38332;SDS011;25748;46.670;14.272;2022-09-27T15:51:44;3.05;;;1.50;;
38332;SDS011;25748;46.670;14.272;2022-09-27T15:54:21;0.85;;;0.47;;
38332;SDS011;25748;46.670;14.272;2022-09-27T15:56:49;0.93;;;0.40;;
38332;SDS011;25748;46.670;14.272;2022-09-27T15:59:20;0.38;;;0.20;;
38332;SDS011;25748;46.670;14.272;2022-09-27T16:01:53;2.95;;;0.20;;
38332;SDS011;25748;46.670;14.272;2022-09-27T16:04:24;0.40;;;0.10;;
38332;SDS011;25748;46.670;14.272;2022-09-27T16:06:51;0.28;;;0.20;;
38332;SDS011;25748;46.670;14.272;2022-09-27T16:09:19;4.85;;;0.52;;
38332;SDS011;25748;46.670;14.272;2022-09-27T16:11:46;1.15;;;0.70;;
38332;SDS011;25748;46.670;14.272;2022-09-27T16:14:12;7.50;;;2.55;;
38332;SDS011;25748;46.670;14.272;2022-09-27T16:16:45;1.25;;;0.55;;
38332;SDS011;25748;46.670;14.272;2022-09-27T16:19:14;2.13;;;1.25;;
38332;SDS011;25748;46.670;14.272;2022-09-27T16:21:39;3.70;;;1.20;;
38332;SDS011;25748;46.670;14.272;2022-09-27T16:24:07;1.27;;;0.70;;
38332;SDS011;25748;46.670;14.272;2022-09-27T16:26:36;1.13;;;0.50;;
38332;SDS011;25748;46.670;14.272;2022-09-27T16:29:02;1.17;;;0.38;;
38332;SDS011;25748;46.670;14.272;2022-09-27T16:31:28;0.95;;;0.50;;
38332;SDS011;25748;46.670;14.272;2022-09-27T16:33:54;1.45;;;0.70;;
38332;SDS011;25748;46.670;14.272;2022-09-27T16:36:20;1.50;;;0.50;;
38332;SDS011;25748;46.670;14.272;2022-09-27T16:38:54;1.25;;;0.40;;
38332;SDS011;25748;46.670;14.272;2022-09-27T16:41:20;3.97;;;0.40;;
38332;SDS011;25748;46.670;14.272;2022-09-27T16:43:46;5.05;;;0.65;;
38332;SDS011;25748;46.670;14.272;2022-09-27T16:46:13;1.60;;;0.70;;
38332;SDS011;25748;46.670;14.272;2022-09-27T16:48:42;5.00;;;1.85;;
38332;SDS011;25748;46.670;14.272;2022-09-27T16:51:18;4.25;;;1.40;;
38332;SDS011;25748;46.670;14.272;2022-09-27T16:54:04;5.00;;;1.67;;
38332;SDS011;25748;46.670;14.272;2022-09-27T16:56:31;5.03;;;1.40;;
38332;SDS011;25748;46.670;14.272;2022-09-27T16:58:58;2.85;;;1.13;;
38332;SDS011;25748;46.670;14.272;2022-09-27T17:01:30;2.58;;;1.08;;
38332;SDS011;25748;46.670;14.272;2022-09-27T17:03:56;3.58;;;1.08;;
38332;SDS011;25748;46.670;14.272;2022-09-27T17:06:23;4.82;;;0.75;;
38332;SDS011;25748;46.670;14.272;2022-09-27T17:08:50;1.13;;;0.50;;
38332;SDS011;25748;46.670;14.272;2022-09-27T17:11:17;3.22;;;0.52;;
38332;SDS011;25748;46.670;14.272;2022-09-27T17:13:44;1.35;;;0.82;;
38332;SDS011;25748;46.670;14.272;2022-09-27T17:16:12;1.45;;;0.75;;
38332;SDS011;25748;46.670;14.272;2022-09-27T17:18:38;0.90;;;0.45;;
38332;SDS011;25748;46.670;14.272;2022-09-27T17:21:05;0.88;;;0.40;;
38332;SDS011;25748;46.670;14.272;2022-09-27T17:23:32;0.80;;;0.40;;
38332;SDS011;25748;46.670;14.272;2022-09-27T17:26:03;1.33;;;0.50;;
38332;SDS011;25748;46.670;14.272;2022-09-27T17:28:30;1.92;;;0.55;;
38332;SDS011;25748;46.670;14.272;2022-09-27T17:31:03;1.77;;;0.50;;
38332;SDS011;25748;46.670;14.272;2022-09-27T17:33:41;3.75;;;0.57;;
38332;SDS011;25748;46.670;14.272;2022-09-27T17:36:26;1.73;;;0.77;;
38332;SDS011;25748;46.670;14.272;2022-09-27T17:38:53;0.75;;;0.50;;
38332;SDS011;25748;46.670;14.272;2022-09-27T17:41:20;3.85;;;0.60;;
38332;SDS011;25748;46.670;14.272;2022-09-27T17:43:50;4.20;;;0.40;;
38332;SDS011;25748;46.670;14.272;2022-09-27T17:46:22;1.98;;;0.70;;
38332;SDS011;25748;46.670;14.272;2022-09-27T17:48:49;1.58;;;0.50;;
38332;SDS011;25748;46.670;14.272;2022-09-27T17:51:35;0.90;;;0.52;;
38332;SDS011;25748;46.670;14.272;2022-09-27T17:54:02;0.63;;;0.30;;
38332;SDS011;25748;46.670;14.272;2022-09-27T17:56:29;3.22;;;0.32;;
38332;SDS011;25748;46.670;14.272;2022-09-27T17:58:57;0.32;;;0.22;;
38332;SDS011;25748;46.670;14.272;2022-09-27T18:01:23;0.38;;;0.30;;
38332;SDS011;25748;46.670;14.272;2022-09-27T18:03:56;1.05;;;0.40;;